createdAt,value
2019-01-06T00:02:15.782Z,99157.66
2019-01-06T00:05:58.492Z,99150.07
2019-01-06T00:09:25.184Z,99155.77
2019-01-06T00:12:55.792Z,99151.36
2019-01-06T00:16:29.296Z,99155.27
2019-01-06T00:19:52.446Z,99151.66
2019-01-06T00:23:32.001Z,99147.30
2019-01-06T00:26:56.016Z,99148.02
2019-01-06T00:30:19.088Z,99143.97
2019-01-06T00:33:40.405Z,99141.34
2019-01-06T00:37:13.766Z,99144.01
2019-01-06T00:40:53.637Z,99150.95
2019-01-06T00:44:27.276Z,99141.65
2019-01-06T00:47:54.807Z,99144.81
2019-01-06T00:51:18.283Z,99134.94
2019-01-06T00:54:41.576Z,99124.55
2019-01-06T00:58:21.224Z,99110.70
2019-01-06T01:01:46.166Z,99103.91
2019-01-06T01:05:22.857Z,99093.41
2019-01-06T01:08:50.510Z,99090.09
2019-01-06T01:12:21.104Z,99085.19
2019-01-06T01:15:44.200Z,99077.73
2019-01-06T01:19:17.775Z,99072.13
2019-01-06T01:22:40.919Z,99071.78
2019-01-06T01:26:09.274Z,99065.50
2019-01-06T01:29:32.701Z,99057.27
2019-01-06T01:33:03.190Z,99051.32
2019-01-06T01:36:27.706Z,99041.80
2019-01-06T01:39:55.004Z,99040.07
2019-01-06T01:43:18.277Z,99036.39
2019-01-06T01:47:00.924Z,99022.46
2019-01-06T01:50:40.859Z,99023.01
2019-01-06T01:54:11.371Z,99010.02
2019-01-06T01:57:54.093Z,98995.19
2019-01-06T02:01:13.143Z,98994.44
2019-01-06T02:04:36.117Z,98986.83
2019-01-06T02:08:00.834Z,98980.52
2019-01-06T02:11:24.240Z,98971.52
2019-01-06T02:14:57.948Z,98986.45
2019-01-06T02:18:21.111Z,98986.55
2019-01-06T02:21:45.024Z,98970.69
2019-01-06T02:25:15.384Z,98969.27
2019-01-06T02:28:49.342Z,98972.09
2019-01-06T02:32:12.358Z,98959.35
2019-01-06T02:35:35.519Z,98952.30
2019-01-06T02:38:58.536Z,98949.20
2019-01-06T02:42:38.161Z,98949.47
2019-01-06T02:46:01.432Z,98939.92
2019-01-06T02:49:37.986Z,98929.31
2019-01-06T02:53:01.292Z,98929.40
2019-01-06T02:56:25.754Z,98921.23
2019-01-06T02:59:56.012Z,98918.64
2019-01-06T03:03:20.490Z,98923.88
2019-01-06T03:06:44.093Z,98919.77
2019-01-06T03:10:08.584Z,98914.67
2019-01-06T03:13:42.167Z,98911.02
2019-01-06T03:17:15.811Z,98914.51
2019-01-06T03:20:40.287Z,98909.44
2019-01-06T03:24:04.695Z,98906.44
2019-01-06T03:27:30.925Z,98903.30
2019-01-06T03:30:54.130Z,98895.50
2019-01-06T03:34:27.717Z,98903.11
2019-01-06T03:37:55.301Z,98902.51
2019-01-06T03:41:20.759Z,98903.14
2019-01-06T03:44:57.538Z,98913.48
2019-01-06T03:48:24.831Z,98916.69
2019-01-06T03:51:48.161Z,98911.44
2019-01-06T03:55:12.970Z,98922.58
2019-01-06T03:58:49.672Z,98914.31
2019-01-06T04:02:14.151Z,98913.73
2019-01-06T04:05:53.201Z,98907.70
2019-01-06T04:09:16.676Z,98913.73
2019-01-06T04:12:40.025Z,98910.34
2019-01-06T04:16:07.606Z,98906.25
2019-01-06T04:19:47.436Z,98912.53
2019-01-06T04:23:14.739Z,98918.31
2019-01-06T04:26:37.880Z,98919.31
2019-01-06T04:30:06.515Z,98910.89
2019-01-06T04:33:31.028Z,98910.43
2019-01-06T04:36:51.612Z,98904.84
2019-01-06T04:40:34.561Z,98909.15
2019-01-06T04:43:57.695Z,98908.03
2019-01-06T04:47:22.152Z,98897.13
2019-01-06T04:50:46.667Z,98902.47
2019-01-06T04:54:15.830Z,98896.79
2019-01-06T04:57:49.525Z,98891.97
2019-01-06T05:01:14.013Z,98890.72
2019-01-06T05:04:47.594Z,98890.21
2019-01-06T05:08:10.083Z,98891.43
2019-01-06T05:11:40.418Z,98892.03
2019-01-06T05:15:04.932Z,98891.03
2019-01-06T05:18:32.323Z,98886.25
2019-01-06T05:21:56.949Z,98892.74
2019-01-06T05:25:24.472Z,98890.88
2019-01-06T05:29:01.015Z,98888.71
2019-01-06T05:32:28.359Z,98878.23
2019-01-06T05:35:51.437Z,98877.34
2019-01-06T05:39:18.906Z,98880.47
2019-01-06T05:42:45.845Z,98878.56
2019-01-06T05:46:08.996Z,98876.89
2019-01-06T05:49:33.366Z,98878.44
2019-01-06T05:53:09.327Z,98883.94
2019-01-06T05:56:23.914Z,98887.35
2019-01-06T06:00:03.696Z,98893.97
2019-01-06T06:03:28.395Z,98888.25
2019-01-06T06:07:11.262Z,98905.03
2019-01-06T06:10:37.612Z,98910.53
2019-01-06T06:14:14.161Z,98906.44
2019-01-06T06:17:38.722Z,98913.35
2019-01-06T06:21:09.246Z,98917.95
2019-01-06T06:24:36.776Z,98932.20
2019-01-06T06:28:19.498Z,98933.70
2019-01-06T06:31:43.959Z,98936.70
2019-01-06T06:35:20.235Z,98944.58
2019-01-06T06:38:48.395Z,98941.72
2019-01-06T06:42:12.182Z,98957.23
2019-01-06T06:45:29.974Z,98959.64
2019-01-06T06:48:54.473Z,98957.17
2019-01-06T06:52:21.746Z,98967.31
2019-01-06T06:55:55.122Z,98966.23
2019-01-06T06:59:18.553Z,98968.91
2019-01-06T07:03:13.050Z,98966.02
2019-01-06T07:06:36.587Z,98969.23
2019-01-06T07:10:16.316Z,98966.06
2019-01-06T07:13:41.174Z,98974.14
2019-01-06T07:17:47.475Z,98978.74
2019-01-06T07:21:14.801Z,98976.14
2019-01-06T07:24:39.175Z,98976.84
2019-01-06T07:28:03.621Z,98981.41
2019-01-06T07:31:31.179Z,98989.72
2019-01-06T07:34:54.396Z,98984.19
2019-01-06T07:38:14.528Z,98989.92
2019-01-06T07:41:44.914Z,98989.06
2019-01-06T07:45:03.036Z,98994.76
2019-01-06T07:48:37.093Z,98994.99
2019-01-06T07:52:04.311Z,98995.50
2019-01-06T07:55:44.020Z,98984.75
2019-01-06T07:59:02.002Z,98982.52
2019-01-06T08:02:26.489Z,98979.47
2019-01-06T08:05:49.953Z,98977.09
2019-01-06T08:09:12.977Z,98989.00
2019-01-06T08:12:37.497Z,98988.44
2019-01-06T08:16:16.649Z,98983.47
2019-01-06T08:19:39.938Z,98979.03
2019-01-06T08:23:03.395Z,98982.58
2019-01-06T08:26:26.753Z,98983.87
2019-01-06T08:29:49.786Z,98991.59
2019-01-06T08:33:20.562Z,98993.37
2019-01-06T08:36:43.729Z,98997.14
2019-01-06T08:40:23.584Z,99003.72
2019-01-06T08:43:50.839Z,98995.84
2019-01-06T08:47:27.497Z,98997.66
2019-01-06T08:50:50.782Z,99003.66
2019-01-06T08:54:15.246Z,99002.73
2019-01-06T08:57:35.586Z,99002.67
2019-01-06T09:00:58.719Z,99002.41
2019-01-06T09:04:26.218Z,99001.95
2019-01-06T09:07:49.350Z,99005.50
2019-01-06T09:11:25.798Z,99003.14
2019-01-06T09:14:49.193Z,99003.88
2019-01-06T09:18:12.691Z,99003.66
2019-01-06T09:21:35.853Z,98998.76
2019-01-06T09:24:59.231Z,98994.48
2019-01-06T09:28:34.343Z,98995.45
2019-01-06T09:32:02.321Z,98999.14
2019-01-06T09:35:24.250Z,99003.36
2019-01-06T09:38:58.038Z,99003.59
2019-01-06T09:42:21.166Z,99000.20
2019-01-06T09:45:44.719Z,99008.64
2019-01-06T09:49:12.022Z,98999.73
2019-01-06T09:52:39.332Z,99000.57
2019-01-06T09:56:02.556Z,99001.07
2019-01-06T09:59:28.335Z,98988.09
2019-01-06T10:02:55.105Z,98990.19
2019-01-06T10:06:28.395Z,98976.86
2019-01-06T10:09:58.959Z,98976.26
2019-01-06T10:13:23.540Z,98969.10
2019-01-06T10:16:46.760Z,98974.77
2019-01-06T10:20:14.049Z,98970.99
2019-01-06T10:23:41.273Z,98970.28
2019-01-06T10:27:21.016Z,98974.66
2019-01-06T10:31:00.489Z,98967.12
2019-01-06T10:34:23.992Z,98969.09
2019-01-06T10:37:44.654Z,98963.02
2019-01-06T10:41:09.105Z,98963.24
2019-01-06T10:44:32.324Z,98956.92
2019-01-06T10:48:08.777Z,98971.92
2019-01-06T10:51:33.247Z,98972.75
2019-01-06T10:54:56.762Z,98970.54
2019-01-06T10:58:20.080Z,98976.98
2019-01-06T11:01:43.567Z,98978.28
2019-01-06T11:05:14.037Z,98979.44
2019-01-06T11:08:33.055Z,98972.52
2019-01-06T11:11:56.202Z,98979.93
2019-01-06T11:15:23.809Z,98978.16
2019-01-06T11:19:06.475Z,98976.75
2019-01-06T11:22:40.173Z,98974.16
2019-01-06T11:26:03.309Z,98979.91
2019-01-06T11:29:31.639Z,98979.89
2019-01-06T11:32:55.075Z,98979.34
2019-01-06T11:36:18.260Z,98987.78
2019-01-06T11:39:57.769Z,98985.20
2019-01-06T11:43:37.442Z,98981.34
2019-01-06T11:47:02.926Z,98991.20
2019-01-06T11:50:27.548Z,98988.83
2019-01-06T11:53:53.156Z,98997.88
2019-01-06T11:57:16.273Z,98994.82
2019-01-06T12:00:40.756Z,99000.80
2019-01-06T12:04:04.608Z,99012.44
2019-01-06T12:07:41.355Z,99009.03
2019-01-06T12:11:11.929Z,99006.09
2019-01-06T12:14:54.639Z,99015.22
2019-01-06T12:18:17.696Z,99009.48
2019-01-06T12:21:54.207Z,99020.05
2019-01-06T12:25:21.650Z,99015.69
2019-01-06T12:28:46.133Z,99022.03
2019-01-06T12:32:09.576Z,99026.58
2019-01-06T12:35:32.957Z,99029.09
2019-01-06T12:39:00.593Z,99036.01
2019-01-06T12:42:25.109Z,99037.30
2019-01-06T12:45:59.364Z,99046.43
2019-01-06T12:49:32.735Z,99055.83
2019-01-06T12:53:09.481Z,99047.16
2019-01-06T12:56:46.096Z,99045.97
2019-01-06T13:00:22.755Z,99046.92
2019-01-06T13:03:47.254Z,99055.73
2019-01-06T13:07:15.770Z,99051.62
2019-01-06T13:10:39.086Z,99050.02
2019-01-06T13:14:03.596Z,99058.23
2019-01-06T13:17:23.086Z,99073.33
2019-01-06T13:20:48.355Z,99088.25
2019-01-06T13:24:11.817Z,99083.70
2019-01-06T13:27:42.367Z,99081.00
2019-01-06T13:31:18.906Z,99082.27
2019-01-06T13:34:49.151Z,99082.66
2019-01-06T13:38:19.701Z,99081.61
2019-01-06T13:41:44.145Z,99089.94
2019-01-06T13:45:14.444Z,99091.56
2019-01-06T13:48:42.104Z,99095.70
2019-01-06T13:52:13.462Z,99107.78
2019-01-06T13:55:50.413Z,99100.97
2019-01-06T13:59:20.938Z,99109.05
2019-01-06T14:02:54.567Z,99103.66
2019-01-06T14:06:28.156Z,99106.33
2019-01-06T14:10:01.705Z,99107.91
2019-01-06T14:13:25.049Z,99113.07
2019-01-06T14:16:53.268Z,99116.80
2019-01-06T14:20:17.170Z,99118.70
2019-01-06T14:23:44.833Z,99123.61
2019-01-06T14:27:18.371Z,99126.06
2019-01-06T14:30:51.930Z,99135.66
2019-01-06T14:34:15.174Z,99144.66
2019-01-06T14:37:51.766Z,99153.73
2019-01-06T14:41:15.167Z,99160.84
2019-01-06T14:44:38.676Z,99165.30
2019-01-06T14:48:09.275Z,99165.03
2019-01-06T14:51:33.771Z,99169.57
2019-01-06T14:55:04.163Z,99183.48
2019-01-06T14:58:31.390Z,99183.16
2019-01-06T15:02:05.171Z,99193.56
2019-01-06T15:05:38.482Z,99202.98
2019-01-06T15:09:02.244Z,99201.67
2019-01-06T15:12:28.279Z,99210.26
2019-01-06T15:15:56.056Z,99204.36
2019-01-06T15:19:28.421Z,99210.02
2019-01-06T15:22:51.929Z,99210.09
2019-01-06T15:26:15.485Z,99207.85
2019-01-06T15:29:43.203Z,99211.91
2019-01-06T15:33:16.863Z,99217.55
2019-01-06T15:36:54.942Z,99222.63
2019-01-06T15:40:18.452Z,99232.19
2019-01-06T15:43:41.717Z,99238.42
2019-01-06T15:47:06.148Z,99242.00
2019-01-06T15:50:29.730Z,99239.94
2019-01-06T15:54:10.568Z,99239.16
2019-01-06T15:57:50.178Z,99253.20
2019-01-06T16:01:33.114Z,99260.17
2019-01-06T16:05:00.680Z,99266.52
2019-01-06T16:08:23.478Z,99268.64
2019-01-06T16:11:51.963Z,99278.05
2019-01-06T16:15:15.427Z,99278.78
2019-01-06T16:18:46.037Z,99286.08
2019-01-06T16:22:19.578Z,99291.33
2019-01-06T16:25:43.010Z,99297.69
2019-01-06T16:29:10.563Z,99294.54
2019-01-06T16:32:37.876Z,99301.88
2019-01-06T16:36:17.749Z,99299.77
2019-01-06T16:39:41.269Z,99304.23
2019-01-06T16:43:05.057Z,99296.64
2019-01-06T16:46:28.368Z,99296.09
2019-01-06T16:49:51.872Z,99300.16
2019-01-06T16:53:28.438Z,99297.31
2019-01-06T16:56:56.149Z,99295.33
2019-01-06T17:00:19.304Z,99303.64
2019-01-06T17:03:49.887Z,99303.97
2019-01-06T17:07:28.506Z,99311.03
2019-01-06T17:10:51.598Z,99316.33
2019-01-06T17:14:19.105Z,99322.35
2019-01-06T17:17:58.700Z,99325.79
2019-01-06T17:21:32.278Z,99333.03
2019-01-06T17:25:05.885Z,99339.92
2019-01-06T17:28:33.538Z,99338.82
2019-01-06T17:31:56.914Z,99337.22
2019-01-06T17:35:33.593Z,99338.45
2019-01-06T17:39:07.077Z,99343.13
2019-01-06T17:42:50.346Z,99347.53
2019-01-06T17:46:30.002Z,99355.41
2019-01-06T17:49:53.130Z,99355.06
2019-01-06T17:53:26.668Z,99361.25
2019-01-06T17:56:49.955Z,99367.80
2019-01-06T18:00:11.149Z,99366.30
2019-01-06T18:03:49.537Z,99371.62
2019-01-06T18:07:12.838Z,99368.05
2019-01-06T18:10:36.040Z,99377.38
2019-01-06T18:14:06.518Z,99386.34
2019-01-06T18:17:29.771Z,99387.84
2019-01-06T18:20:54.238Z,99396.40
2019-01-06T18:24:17.399Z,99396.88
2019-01-06T18:27:40.565Z,99401.00
2019-01-06T18:31:14.146Z,99394.73
2019-01-06T18:34:38.755Z,99395.12
2019-01-06T18:38:13.028Z,99398.94
2019-01-06T18:41:34.858Z,99395.98
2019-01-06T18:45:09.231Z,99397.88
2019-01-06T18:48:30.799Z,99399.91
2019-01-06T18:51:54.017Z,99408.78
2019-01-06T18:55:18.523Z,99419.26
2019-01-06T18:58:49.211Z,99423.31
2019-01-06T19:02:12.324Z,99419.38
2019-01-06T19:05:36.747Z,99422.04
2019-01-06T19:09:08.704Z,99425.91
2019-01-06T19:12:29.843Z,99421.56
2019-01-06T19:15:52.963Z,99418.78
2019-01-06T19:19:16.110Z,99428.14
2019-01-06T19:22:52.766Z,99432.78
2019-01-06T19:26:26.273Z,99438.88
2019-01-06T19:29:50.547Z,99439.02
2019-01-06T19:33:14.078Z,99435.63
2019-01-06T19:36:37.324Z,99432.14
2019-01-06T19:40:06.608Z,99424.13
2019-01-06T19:43:29.814Z,99439.41
2019-01-06T19:46:49.393Z,99442.75
2019-01-06T19:50:13.863Z,99437.95
2019-01-06T19:53:32.875Z,99450.66
2019-01-06T19:56:52.444Z,99444.20
2019-01-06T20:00:16.926Z,99443.36
2019-01-06T20:03:44.510Z,99445.67
2019-01-06T20:07:27.409Z,99445.40
2019-01-06T20:10:57.078Z,99453.72
2019-01-06T20:14:21.580Z,99456.84
2019-01-06T20:18:01.605Z,99450.89
2019-01-06T20:21:31.961Z,99451.98
2019-01-06T20:24:59.373Z,99454.99
2019-01-06T20:28:22.548Z,99458.19
2019-01-06T20:31:56.035Z,99466.95
2019-01-06T20:35:22.964Z,99466.34
2019-01-06T20:38:53.432Z,99479.31
2019-01-06T20:42:27.015Z,99474.36
2019-01-06T20:45:50.102Z,99469.20
2019-01-06T20:49:20.692Z,99471.30
2019-01-06T20:52:51.334Z,99463.75
2019-01-06T20:56:14.670Z,99472.64
2019-01-06T20:59:54.594Z,99469.67
2019-01-06T21:03:19.069Z,99479.39
2019-01-06T21:06:46.298Z,99480.45
2019-01-06T21:10:13.775Z,99487.22
2019-01-06T21:13:36.937Z,99486.34
2019-01-06T21:17:04.403Z,99489.05
2019-01-06T21:20:27.827Z,99489.27
2019-01-06T21:23:47.711Z,99490.74
2019-01-06T21:27:27.651Z,99491.85
2019-01-06T21:30:51.296Z,99492.58
2019-01-06T21:34:15.827Z,99489.80
2019-01-06T21:37:55.779Z,99487.52
2019-01-06T21:41:29.591Z,99486.75
2019-01-06T21:44:52.154Z,99488.72
2019-01-06T21:48:28.774Z,99485.58
2019-01-06T21:52:02.311Z,99487.70
2019-01-06T21:55:25.638Z,99485.09
2019-01-06T21:58:55.923Z,99491.36
2019-01-06T22:02:23.655Z,99499.14
2019-01-06T22:05:48.107Z,99495.52
2019-01-06T22:09:11.414Z,99494.62
2019-01-06T22:12:35.950Z,99490.63
2019-01-06T22:16:03.233Z,99494.90
2019-01-06T22:19:31.400Z,99497.27
2019-01-06T22:22:55.815Z,99495.45
2019-01-06T22:26:26.508Z,99497.70
2019-01-06T22:29:49.916Z,99493.73
2019-01-06T22:33:17.152Z,99489.30
2019-01-06T22:36:48.184Z,99483.89
2019-01-06T22:40:24.192Z,99488.22
2019-01-06T22:43:51.837Z,99489.67
2019-01-06T22:47:15.064Z,99489.58
2019-01-06T22:50:42.644Z,99492.10
2019-01-06T22:54:10.672Z,99499.66
2019-01-06T22:57:44.566Z,99500.04
2019-01-06T23:01:27.592Z,99504.43
2019-01-06T23:04:55.088Z,99503.50
2019-01-06T23:08:22.113Z,99510.21
2019-01-06T23:11:45.481Z,99513.20
2019-01-06T23:15:15.732Z,99515.75
2019-01-06T23:18:49.632Z,99508.71
2019-01-06T23:22:15.751Z,99511.17
2019-01-06T23:25:39.216Z,99515.11
2019-01-06T23:29:12.822Z,99512.82
2019-01-06T23:32:36.034Z,99516.17
2019-01-06T23:35:59.388Z,99520.45
2019-01-06T23:39:24.006Z,99523.88
2019-01-06T23:42:47.276Z,99516.84
2019-01-06T23:46:10.423Z,99520.78
2019-01-06T23:49:27.850Z,99526.84
2019-01-06T23:52:58.468Z,99524.03
2019-01-06T23:56:32.256Z,99528.53
2019-01-06T23:59:56.771Z,99535.24
